LOT98X OMDB-EPWA
Flight info
| Callsign | LOT98X |
|---|---|
| Flight time | N/A |
| Altitude | 39000 |
| Route | ANVIX L223 TARDI N629 BOTAM Y855 LAKLU/N0493F400 Q204 NALKI G652 TOKRA DCT ALROK DCT BOSOB DCT ITRUX Y511 PMA Z712 WEJ L677 CVO L617 NOZ L551 ANTAR DCT RIGRO DCT ATFIR N133 USALI/N0496F430 DCT LOMOS DCT NEKUL DCT BUXLE DCT MEGIK DCT KEKED DCT ORTEB DCT KONZI DCT LOGDA |
| Aircraft | B788/H-SDE1E2E3FGHIJ2J3J4J5M1RWXY/LB1D1 |
Departure
| Time | 2026-04-30 14:02 |
|---|---|
| Airport | Dubai International Airport (OMDB) |
Arrival
| Time | N/A |
|---|---|
| Airport | Warsaw Chopin Airport (EPWA) |
| Time | Latitude | Longitude | Altitude | Speed | Heading |
|---|---|---|---|---|---|
| 2026-04-30 13:34 | 25.25968 | 55.34361 | 27 ft | 0 kts | 211° |
| 2026-04-30 13:46 | 25.25971 | 55.34362 | 28 ft | 2 kts | 211° |
| 2026-04-30 13:46 | 25.25986 | 55.34370 | 27 ft | 2 kts | 218° |
| 2026-04-30 13:46 | 25.26001 | 55.34372 | 27 ft | 0 kts | 246° |
| 2026-04-30 13:46 | 25.26003 | 55.34381 | 25 ft | 2 kts | 229° |
| 2026-04-30 13:47 | 25.26016 | 55.34392 | 24 ft | 2 kts | 184° |
| 2026-04-30 13:47 | 25.26032 | 55.34392 | 24 ft | 2 kts | 161° |
| 2026-04-30 13:47 | 25.26046 | 55.34384 | 27 ft | 2 kts | 130° |
| 2026-04-30 13:47 | 25.26049 | 55.34381 | 26 ft | 0 kts | 122° |
| 2026-04-30 13:51 | 25.26043 | 55.34393 | 24 ft | 3 kts | 122° |
| 2026-04-30 13:51 | 25.26026 | 55.34422 | 26 ft | 6 kts | 122° |
| 2026-04-30 13:51 | 25.25997 | 55.34477 | 28 ft | 10 kts | 121° |
| 2026-04-30 13:52 | 25.25953 | 55.34555 | 28 ft | 14 kts | 122° |
| 2026-04-30 13:52 | 25.25895 | 55.34657 | 28 ft | 17 kts | 121° |
| 2026-04-30 13:52 | 25.25833 | 55.34769 | 28 ft | 19 kts | 122° |
| 2026-04-30 13:52 | 25.25762 | 55.34897 | 28 ft | 21 kts | 121° |
| 2026-04-30 13:53 | 25.25693 | 55.35025 | 28 ft | 20 kts | 119° |
| 2026-04-30 13:53 | 25.25620 | 55.35161 | 28 ft | 21 kts | 122° |
| 2026-04-30 13:53 | 25.25539 | 55.35305 | 28 ft | 22 kts | 122° |
| 2026-04-30 13:53 | 25.25458 | 55.35453 | 28 ft | 22 kts | 121° |
| 2026-04-30 13:54 | 25.25379 | 55.35593 | 28 ft | 20 kts | 122° |
| 2026-04-30 13:54 | 25.25304 | 55.35726 | 28 ft | 21 kts | 121° |
| 2026-04-30 13:54 | 25.25234 | 55.35856 | 28 ft | 17 kts | 121° |
| 2026-04-30 13:54 | 25.25170 | 55.35972 | 28 ft | 18 kts | 121° |
| 2026-04-30 13:55 | 25.25103 | 55.36092 | 28 ft | 19 kts | 122° |
| 2026-04-30 13:55 | 25.25034 | 55.36216 | 28 ft | 19 kts | 122° |
| 2026-04-30 13:55 | 25.24965 | 55.36343 | 28 ft | 19 kts | 120° |
| 2026-04-30 13:55 | 25.24906 | 55.36449 | 28 ft | 14 kts | 122° |
| 2026-04-30 13:56 | 25.24851 | 55.36546 | 28 ft | 15 kts | 121° |
| 2026-04-30 13:56 | 25.24814 | 55.36622 | 28 ft | 12 kts | 115° |
| 2026-04-30 13:56 | 25.24786 | 55.36712 | 28 ft | 13 kts | 104° |
| 2026-04-30 13:56 | 25.24761 | 55.36813 | 28 ft | 14 kts | 108° |
| 2026-04-30 13:57 | 25.24713 | 55.36913 | 27 ft | 15 kts | 122° |
| 2026-04-30 13:57 | 25.24655 | 55.37018 | 28 ft | 17 kts | 121° |
| 2026-04-30 13:57 | 25.24593 | 55.37131 | 28 ft | 18 kts | 121° |
| 2026-04-30 13:57 | 25.24527 | 55.37250 | 28 ft | 18 kts | 121° |
| 2026-04-30 13:58 | 25.24460 | 55.37372 | 28 ft | 19 kts | 121° |
| 2026-04-30 13:58 | 25.24327 | 55.37612 | 28 ft | 17 kts | 121° |
| 2026-04-30 13:58 | 25.24274 | 55.37720 | 28 ft | 15 kts | 107° |
| 2026-04-30 13:59 | 25.24296 | 55.37782 | 28 ft | 8 kts | 46° |
| 2026-04-30 13:59 | 25.24340 | 55.37821 | 28 ft | 9 kts | 37° |
| 2026-04-30 13:59 | 25.24394 | 55.37864 | 28 ft | 11 kts | 35° |
| 2026-04-30 13:59 | 25.24465 | 55.37918 | 28 ft | 13 kts | 34° |
| 2026-04-30 14:00 | 25.24548 | 55.37981 | 28 ft | 16 kts | 34° |
| 2026-04-30 14:00 | 25.24641 | 55.38047 | 28 ft | 1 kts | 32° |
| 2026-04-30 14:00 | 25.24659 | 55.38059 | 28 ft | 5 kts | 31° |
| 2026-04-30 14:01 | 25.24706 | 55.38088 | 28 ft | 11 kts | 24° |
| 2026-04-30 14:01 | 25.24788 | 55.38059 | 28 ft | 15 kts | 311° |
| 2026-04-30 14:01 | 25.24894 | 55.37861 | 28 ft | 65 kts | 302° |
| 2026-04-30 14:01 | 25.25293 | 55.37144 | 28 ft | 151 kts | 301° |
| 2026-04-30 14:02 | 25.25944 | 55.36016 | 588 ft | 177 kts | 309° |
| 2026-04-30 14:02 | 25.26599 | 55.34921 | 1709 ft | 167 kts | 302° |
| 2026-04-30 14:02 | 25.27226 | 55.33805 | 2598 ft | 175 kts | 301° |
| 2026-04-30 14:02 | 25.27815 | 55.32623 | 3546 ft | 181 kts | 300° |
| 2026-04-30 14:03 | 25.28477 | 55.31393 | 3987 ft | 188 kts | 301° |
| 2026-04-30 14:03 | 25.29094 | 55.30120 | 3928 ft | 185 kts | 287° |
| 2026-04-30 14:03 | 25.29147 | 55.28719 | 3948 ft | 186 kts | 264° |
| 2026-04-30 14:03 | 25.28665 | 55.27351 | 3972 ft | 195 kts | 248° |
| 2026-04-30 14:04 | 25.28065 | 55.25959 | 4275 ft | 202 kts | 249° |
| 2026-04-30 14:04 | 25.27467 | 55.24552 | 5201 ft | 214 kts | 248° |
| 2026-04-30 14:04 | 25.26816 | 55.23014 | 5770 ft | 225 kts | 247° |
| 2026-04-30 14:04 | 25.26126 | 55.21391 | 6303 ft | 239 kts | 246° |
| 2026-04-30 14:05 | 25.25429 | 55.19756 | 6761 ft | 233 kts | 246° |
| 2026-04-30 14:05 | 25.24625 | 55.18182 | 7234 ft | 240 kts | 231° |
| 2026-04-30 14:05 | 25.23282 | 55.17100 | 7697 ft | 243 kts | 207° |
| 2026-04-30 14:05 | 25.21621 | 55.16757 | 8171 ft | 253 kts | 184° |
| 2026-04-30 14:06 | 25.19863 | 55.16976 | 8651 ft | 260 kts | 167° |
| 2026-04-30 14:06 | 25.17201 | 55.19739 | 9638 ft | 278 kts | 122° |
| 2026-04-30 14:07 | 25.15403 | 55.23574 | 10586 ft | 283 kts | 121° |
| 2026-04-30 14:07 | 25.14481 | 55.25497 | 11065 ft | 284 kts | 121° |
| 2026-04-30 14:07 | 25.13531 | 55.27448 | 11506 ft | 298 kts | 122° |
| 2026-04-30 14:08 | 25.11474 | 55.31721 | 12468 ft | 322 kts | 121° |
| 2026-04-30 14:08 | 25.10471 | 55.33957 | 12974 ft | 330 kts | 115° |
| 2026-04-30 14:08 | 25.08569 | 55.38529 | 14976 ft | 335 kts | 119° |
| 2026-04-30 14:09 | 25.07573 | 55.40883 | 15930 ft | 341 kts | 118° |
| 2026-04-30 14:09 | 25.06668 | 55.43360 | 16584 ft | 359 kts | 115° |
| 2026-04-30 14:09 | 25.04510 | 55.48788 | 17034 ft | 414 kts | 117° |
| 2026-04-30 14:10 | 25.03344 | 55.51804 | 17167 ft | 439 kts | 115° |
| 2026-04-30 14:10 | 25.02167 | 55.54922 | 18051 ft | 442 kts | 118° |
| 2026-04-30 14:10 | 25.00631 | 55.57862 | 18652 ft | 445 kts | 125° |
| 2026-04-30 14:10 | 24.99032 | 55.60819 | 19347 ft | 451 kts | 124° |
| 2026-04-30 14:11 | 24.97439 | 55.63823 | 19989 ft | 457 kts | 124° |
| 2026-04-30 14:11 | 24.95809 | 55.66853 | 20658 ft | 462 kts | 124° |
| 2026-04-30 14:11 | 24.94130 | 55.69896 | 21277 ft | 467 kts | 128° |
| 2026-04-30 14:11 | 24.92229 | 55.72804 | 21858 ft | 471 kts | 130° |
| 2026-04-30 14:12 | 24.90285 | 55.75726 | 22498 ft | 475 kts | 130° |
| 2026-04-30 14:12 | 24.88324 | 55.78678 | 23076 ft | 481 kts | 130° |
| 2026-04-30 14:12 | 24.86343 | 55.81672 | 23602 ft | 486 kts | 130° |
| 2026-04-30 14:12 | 24.85025 | 55.83665 | 23946 ft | 487 kts | 130° |
| 2026-04-30 14:13 | 24.82330 | 55.87701 | 24640 ft | 491 kts | 131° |
| 2026-04-30 14:13 | 24.80269 | 55.90718 | 25049 ft | 495 kts | 131° |
| 2026-04-30 14:13 | 24.78143 | 55.93704 | 25421 ft | 495 kts | 137° |
| 2026-04-30 14:13 | 24.75738 | 55.96311 | 25973 ft | 492 kts | 141° |
| 2026-04-30 14:14 | 24.73210 | 55.98936 | 26426 ft | 495 kts | 142° |
| 2026-04-30 14:14 | 24.70708 | 56.01486 | 26856 ft | 498 kts | 142° |
| 2026-04-30 14:14 | 24.68163 | 56.04087 | 27286 ft | 501 kts | 142° |
| 2026-04-30 14:14 | 24.65616 | 56.06721 | 27688 ft | 504 kts | 141° |
| 2026-04-30 14:15 | 24.63058 | 56.09369 | 28129 ft | 506 kts | 141° |
| 2026-04-30 14:15 | 24.60478 | 56.12018 | 28538 ft | 509 kts | 142° |
| 2026-04-30 14:15 | 24.57879 | 56.14684 | 28930 ft | 513 kts | 141° |
| 2026-04-30 14:15 | 24.55455 | 56.17599 | 29294 ft | 520 kts | 135° |
| 2026-04-30 14:16 | 24.53089 | 56.20620 | 29629 ft | 522 kts | 135° |
| 2026-04-30 14:16 | 24.50708 | 56.23645 | 29965 ft | 525 kts | 135° |
| 2026-04-30 14:16 | 24.48314 | 56.26691 | 30265 ft | 528 kts | 135° |
| 2026-04-30 14:16 | 24.45914 | 56.29750 | 30551 ft | 531 kts | 135° |
| 2026-04-30 14:17 | 24.43500 | 56.32819 | 30936 ft | 529 kts | 134° |
| 2026-04-30 14:17 | 24.40966 | 56.35727 | 31184 ft | 526 kts | 143° |
| 2026-04-30 14:17 | 24.37990 | 56.38026 | 31448 ft | 521 kts | 155° |
| 2026-04-30 14:17 | 24.34696 | 56.39593 | 31826 ft | 513 kts | 167° |
| 2026-04-30 14:18 | 24.31233 | 56.40378 | 32221 ft | 505 kts | 179° |
| 2026-04-30 14:18 | 24.27750 | 56.40390 | 32595 ft | 499 kts | 188° |
| 2026-04-30 14:18 | 24.21056 | 56.38768 | 33392 ft | 490 kts | 204° |
| 2026-04-30 14:19 | 24.14770 | 56.35912 | 34186 ft | 488 kts | 204° |
| 2026-04-30 14:19 | 24.11578 | 56.34661 | 34590 ft | 487 kts | 201° |
| 2026-04-30 14:19 | 24.08380 | 56.33454 | 35024 ft | 484 kts | 202° |
| 2026-04-30 14:20 | 24.05244 | 56.32169 | 35479 ft | 481 kts | 204° |
| 2026-04-30 14:20 | 24.02126 | 56.30852 | 35930 ft | 478 kts | 204° |
| 2026-04-30 14:20 | 23.95960 | 56.28381 | 36909 ft | 472 kts | 203° |
| 2026-04-30 14:21 | 23.92891 | 56.27141 | 37337 ft | 469 kts | 204° |
| 2026-04-30 14:21 | 23.89840 | 56.25891 | 37690 ft | 468 kts | 204° |
| 2026-04-30 14:21 | 23.83754 | 56.23433 | 38533 ft | 464 kts | 204° |
| 2026-04-30 14:22 | 23.80725 | 56.22211 | 38749 ft | 465 kts | 204° |
| 2026-04-30 14:22 | 23.71544 | 56.18501 | 38857 ft | 468 kts | 203° |
| 2026-04-30 14:23 | 23.59362 | 56.13589 | 38841 ft | 465 kts | 203° |
| 2026-04-30 14:24 | 23.50233 | 56.09916 | 38830 ft | 466 kts | 203° |
| 2026-04-30 14:25 | 23.38034 | 56.05015 | 38809 ft | 468 kts | 203° |
| 2026-04-30 14:26 | 23.28863 | 56.01338 | 38804 ft | 468 kts | 203° |
| 2026-04-30 14:27 | 23.19749 | 55.97688 | 38794 ft | 467 kts | 203° |
| 2026-04-30 14:27 | 23.13652 | 55.95250 | 38794 ft | 467 kts | 203° |
| 2026-04-30 14:28 | 23.04511 | 55.91598 | 38791 ft | 466 kts | 203° |
| 2026-04-30 14:28 | 22.98428 | 55.89171 | 38792 ft | 465 kts | 203° |
| 2026-04-30 14:29 | 22.87275 | 55.84727 | 38784 ft | 464 kts | 203° |
| 2026-04-30 14:31 | 22.71112 | 55.78301 | 38780 ft | 467 kts | 203° |
| 2026-04-30 14:31 | 22.61976 | 55.74676 | 38782 ft | 465 kts | 203° |
| 2026-04-30 14:32 | 22.52885 | 55.71074 | 38777 ft | 464 kts | 203° |
| 2026-04-30 14:33 | 22.46818 | 55.68672 | 38772 ft | 465 kts | 203° |
| 2026-04-30 14:33 | 22.37670 | 55.65056 | 38767 ft | 468 kts | 203° |
| 2026-04-30 14:34 | 22.31549 | 55.62640 | 38772 ft | 468 kts | 203° |
| 2026-04-30 14:34 | 22.26502 | 55.60565 | 38781 ft | 465 kts | 208° |
| 2026-04-30 14:35 | 22.21186 | 55.56714 | 38784 ft | 460 kts | 225° |
| 2026-04-30 14:35 | 22.19009 | 55.54190 | 38777 ft | 460 kts | 233° |
| 2026-04-30 14:36 | 22.15844 | 55.48207 | 38782 ft | 461 kts | 249° |
| 2026-04-30 14:36 | 22.14493 | 55.41450 | 38782 ft | 464 kts | 262° |
| 2026-04-30 14:37 | 22.13899 | 55.34526 | 38772 ft | 463 kts | 262° |
| 2026-04-30 14:37 | 22.13341 | 55.27601 | 38772 ft | 463 kts | 262° |
| 2026-04-30 14:38 | 22.12763 | 55.20724 | 38769 ft | 465 kts | 262° |
| 2026-04-30 14:38 | 22.12186 | 55.13764 | 38770 ft | 467 kts | 262° |
| 2026-04-30 14:39 | 22.11600 | 55.06798 | 38766 ft | 466 kts | 262° |
| 2026-04-30 14:39 | 22.11015 | 54.99847 | 38767 ft | 465 kts | 262° |
| 2026-04-30 14:40 | 22.10129 | 54.89416 | 38768 ft | 465 kts | 262° |
| 2026-04-30 14:40 | 22.09537 | 54.82472 | 38770 ft | 466 kts | 262° |
| 2026-04-30 14:41 | 22.08940 | 54.75516 | 38767 ft | 466 kts | 262° |
| 2026-04-30 14:41 | 22.08336 | 54.68519 | 38766 ft | 467 kts | 262° |
| 2026-04-30 14:42 | 22.07736 | 54.61598 | 38764 ft | 467 kts | 262° |
| 2026-04-30 14:42 | 22.07129 | 54.54625 | 38765 ft | 467 kts | 262° |
| 2026-04-30 14:43 | 22.06518 | 54.47651 | 38770 ft | 468 kts | 262° |
| 2026-04-30 14:43 | 22.05902 | 54.40651 | 38771 ft | 469 kts | 262° |
| 2026-04-30 14:44 | 22.05285 | 54.33665 | 38767 ft | 467 kts | 262° |
| 2026-04-30 14:44 | 22.04666 | 54.26698 | 38767 ft | 466 kts | 262° |
| 2026-04-30 14:45 | 22.04045 | 54.19741 | 38771 ft | 467 kts | 262° |
| 2026-04-30 14:45 | 22.03419 | 54.12766 | 38771 ft | 468 kts | 262° |
| 2026-04-30 14:46 | 22.02790 | 54.05777 | 38771 ft | 468 kts | 262° |
| 2026-04-30 14:46 | 22.02157 | 53.98795 | 38782 ft | 468 kts | 262° |
| 2026-04-30 14:47 | 22.01519 | 53.91780 | 38766 ft | 471 kts | 262° |
| 2026-04-30 14:47 | 22.00877 | 53.84760 | 38767 ft | 471 kts | 262° |
| 2026-04-30 14:48 | 22.00233 | 53.77744 | 38772 ft | 471 kts | 262° |
| 2026-04-30 14:48 | 21.99584 | 53.70722 | 38763 ft | 472 kts | 262° |
| 2026-04-30 14:49 | 21.98932 | 53.63683 | 38772 ft | 472 kts | 262° |
| 2026-04-30 14:49 | 21.98281 | 53.56692 | 38772 ft | 472 kts | 262° |
| 2026-04-30 14:50 | 21.97294 | 53.46159 | 38764 ft | 467 kts | 262° |
| 2026-04-30 14:51 | 21.96326 | 53.35932 | 38759 ft | 464 kts | 262° |
| 2026-04-30 14:52 | 21.95330 | 53.25408 | 38768 ft | 472 kts | 262° |
| 2026-04-30 14:52 | 21.94318 | 53.14834 | 38769 ft | 474 kts | 262° |
| 2026-04-30 14:53 | 21.93299 | 53.04247 | 38763 ft | 473 kts | 262° |
| 2026-04-30 14:54 | 21.91916 | 52.90007 | 38777 ft | 488 kts | 262° |
| 2026-04-30 14:55 | 21.90842 | 52.79018 | 38772 ft | 491 kts | 262° |
| 2026-04-30 14:56 | 21.91129 | 52.64351 | 38767 ft | 497 kts | 278° |
| 2026-04-30 14:57 | 21.93154 | 52.53395 | 38772 ft | 495 kts | 278° |
| 2026-04-30 14:58 | 21.95819 | 52.38836 | 38773 ft | 496 kts | 279° |
| 2026-04-30 14:58 | 21.97803 | 52.27953 | 38777 ft | 496 kts | 279° |
| 2026-04-30 15:00 | 22.01113 | 52.09724 | 38783 ft | 496 kts | 278° |
| 2026-04-30 15:01 | 22.03748 | 51.95123 | 38781 ft | 495 kts | 278° |
| 2026-04-30 15:01 | 22.05710 | 51.84200 | 38781 ft | 495 kts | 278° |
| 2026-04-30 15:02 | 22.07013 | 51.76924 | 38783 ft | 494 kts | 278° |
| 2026-04-30 15:03 | 22.10248 | 51.58766 | 38794 ft | 494 kts | 278° |
| 2026-04-30 15:04 | 22.13480 | 51.40514 | 38806 ft | 494 kts | 278° |
| 2026-04-30 15:06 | 22.16667 | 51.22381 | 38802 ft | 492 kts | 278° |
| 2026-04-30 15:07 | 22.19204 | 51.07867 | 38807 ft | 492 kts | 278° |
| 2026-04-30 15:08 | 22.21730 | 50.93335 | 38814 ft | 493 kts | 278° |
| 2026-04-30 15:09 | 22.24855 | 50.75238 | 38817 ft | 490 kts | 278° |
| 2026-04-30 15:10 | 22.27339 | 50.60771 | 38814 ft | 490 kts | 278° |
| 2026-04-30 15:11 | 22.31054 | 50.38985 | 38820 ft | 492 kts | 277° |
| 2026-04-30 15:13 | 22.34113 | 50.20906 | 38824 ft | 487 kts | 277° |
| 2026-04-30 15:14 | 22.38365 | 49.95563 | 38819 ft | 490 kts | 277° |
| 2026-04-30 15:17 | 22.43770 | 49.62972 | 38829 ft | 492 kts | 277° |
| 2026-04-30 15:19 | 22.48525 | 49.33952 | 38831 ft | 489 kts | 277° |